Latest Weather Observations for Montague Island

IDN60901

Issued at 1:35 pm EDT Thursday 27 November 2014 (issued every 10 minutes, with the page automatically refreshed every 10 minutes)

About weather observations | Map of Canberra area stations | Latest observations for Canberra area | Other Formats
Station Details ID: 069017 Name: MONTAGUE ISLAND LIGHTHOUSE Lat: -36.25 Lon: 150.23 Height: 52.0 m
Data from the previous 72 hours. | See also: Recent months at Montague Island
Date/Time
EDT
Tmp

°C
App
Tmp
°C
Dew
Point
°C
Rel
Hum
%
Delta-T

°C
Wind Press
QNH
hPa
Press
MSL
hPa
Rain
since
9 am
mm
Dir
 
Spd
km/h
Gust
km/h
Spd
kts
Gust
kts
27/01:30pm 17.1 13.4 10.2 64 3.6 SSE 20 28 11 15 1023.5 1023.4 0.2
27/01:00pm 18.0 14.8 11.1 64 3.7 SSE 19 24 10 13 1023.3 1023.2 0.2
27/12:30pm 17.0 13.5 10.1 64 3.7 S 19 24 10 13 1023.6 1023.5 0.0
27/12:00pm 17.8 14.5 11.6 67 3.4 S 20 28 11 15 1023.5 1023.4 0.0
27/11:30am 17.3 13.4 10.9 66 3.4 S 22 30 12 16 1023.4 1023.3 0.0
27/11:00am 16.7 12.3 10.5 67 3.3 S 24 33 13 18 1023.5 1023.4 0.0
27/10:30am 16.1 10.6 10.6 70 2.9 S 30 39 16 21 1023.5 1023.4 0.0
27/10:00am 15.9 9.9 10.7 71 2.8 S 33 41 18 22 1023.4 1023.3 0.0
27/09:30am 15.5 9.4 10.5 72 2.6 S 33 43 18 23 1023.5 1023.4 0.0
27/09:00am 15.7 9.9 10.7 72 2.6 S 32 39 17 21 1023.2 1023.1 4.4
27/08:30am 15.4 9.0 10.8 74 2.4 S 35 43 19 23 1022.9 1022.8 4.4
27/08:00am 15.4 9.1 11.2 76 2.2 S 35 44 19 24 1022.8 1022.7 4.4
27/07:30am 15.4 8.8 11.2 76 2.3 S 37 48 20 26 1022.6 1022.5 4.4
27/07:00am 15.4 9.1 11.2 76 2.2 S 35 43 19 23 1022.2 1022.1 4.4
27/06:30am 15.5 9.0 11.7 78 2.1 S 37 44 20 24 1021.9 1021.8 4.4
27/06:00am 15.3 8.1 11.9 80 1.8 S 41 48 22 26 1021.5 1021.4 4.4
27/05:30am 15.5 8.8 12.4 82 1.7 S 39 46 21 25 1021.3 1021.2 4.4
27/05:00am 15.7 10.4 13.0 84 1.5 S 33 44 18 24 1021.0 1020.9 4.4
27/04:30am 15.5 11.0 13.9 90 0.9 S 30 35 16 19 1020.7 1020.6 4.4
27/04:00am 15.8 14.9 14.8 94 0.6 SSW 13 19 7 10 1020.7 1020.6 4.4
27/03:30am 15.8 14.1 14.8 94 0.6 SSW 17 24 9 13 1020.6 1020.5 4.2
27/03:00am 15.6 13.2 14.5 93 0.6 SW 20 24 11 13 1020.7 1020.6 4.2
27/02:30am 15.8 13.4 14.5 92 0.7 SW 20 24 11 13 1020.7 1020.6 3.8
27/02:00am 16.2 13.5 14.7 91 0.9 SW 22 28 12 15 1020.7 1020.6 2.8
27/01:30am 16.6 12.8 14.6 88 1.1 S 28 33 15 18 1020.7 1020.6 2.6
27/01:00am 17.3 13.6 13.8 80 2.0 SSE 26 30 14 16 1020.9 1020.8 2.4
27/12:30am 17.2 13.8 13.7 80 2.0 SSE 24 28 13 15 1021.3 1021.2 2.4
27/12:00am 17.1 14.3 14.2 83 1.7 SSE 22 28 12 15 1021.4 1021.3 2.4
 
Date/Time
EDT
Tmp

°C
App
Tmp
°C
Dew
Point
°C
Rel
Hum
%
Delta-T

°C
Wind Press
QNH
hPa
Press
MSL
hPa
Rain
since
9 am
mm
Dir
 
Spd
km/h
Gust
km/h
Spd
kts
Gust
kts
26/11:30pm 17.1 14.1 13.6 80 2.0 SSE 22 28 12 15 1021.5 1021.4 2.4
26/11:00pm 16.8 13.0 13.7 82 1.7 SSE 26 32 14 17 1021.4 1021.3 2.4
26/10:30pm 16.3 11.7 14.5 89 1.0 SSE 32 35 17 19 1021.4 1021.3 2.4
26/10:00pm 16.0 11.6 14.0 88 1.1 SSE 30 35 16 19 1021.5 1021.4 0.4
26/09:30pm 17.9 12.3 13.2 74 2.7 SSE 35 39 19 21 1021.1 1021.0 0.0
26/09:00pm 18.1 13.4 13.2 73 2.8 SE 30 37 16 20 1020.7 1020.6 0.0
26/08:30pm 18.0 13.3 13.3 74 2.7 SE 30 35 16 19 1020.5 1020.4 0.0
26/08:00pm 17.6 12.4 12.7 73 2.7 SE 32 39 17 21 1020.4 1020.3 0.0
26/07:30pm 17.9 12.6 13.0 73 2.8 SE 33 39 18 21 1020.0 1019.9 0.0
26/07:00pm 18.0 13.0 13.3 74 2.7 SE 32 37 17 20 1019.7 1019.6 0.0
26/06:30pm 18.0 - - - - SE 33 39 18 21 - 1016.3 0.0
26/06:00pm 18.3 - - - - SE 33 39 18 21 - 1014.4 0.0
26/05:30pm 18.2 - - - - SE 33 39 18 21 - 1015.9 0.0
26/05:00pm 18.4 - - - - SE 33 39 18 21 - 1015.9 0.0
26/04:30pm 18.7 - - - - SE 35 41 19 22 - 1016.3 0.0
26/04:00pm 19.5 - - - - SE 37 43 20 23 - 1016.0 0.0
26/03:30pm - - - - - ESE 35 41 19 22 - 1015.8 0.0
26/03:00pm - - - - - ESE 33 39 18 21 - 1015.6 0.0
26/02:30pm - - - - - ESE 33 37 18 20 - 1016.2 0.0
26/02:00pm - - - - - ESE 33 37 18 20 - 1016.4 0.0
26/01:30pm - - - - - ESE 30 35 16 19 - 1016.6 0.0
26/01:00pm - - - - - E 17 19 9 10 - 1017.0 0.0
26/12:30pm - - - - - E 13 15 7 8 - 1017.1 0.0
26/12:00pm 21.4 20.3 14.3 64 4.1 ENE 13 17 7 9 1018.1 1018.0 0.0
26/11:30am 20.6 19.0 14.9 70 3.4 NE 17 20 9 11 1018.2 1018.1 0.0
26/11:00am 21.1 20.0 15.2 69 3.5 NNE 15 20 8 11 1018.4 1018.3 0.0
26/10:30am 20.3 18.4 14.2 68 3.5 NNE 17 20 9 11 1018.4 1018.3 0.0
26/10:00am 20.7 20.1 14.6 68 3.6 N 11 19 6 10 1018.8 1018.7 0.0
26/09:30am 19.5 18.0 14.1 71 3.1 NNW 15 22 8 12 1018.8 1018.7 0.0
26/09:00am 19.1 18.1 13.5 70 3.2 NNW 11 17 6 9 1019.1 1019.0 1.2
26/08:30am 18.9 18.6 13.3 70 3.2 NNW 7 13 4 7 1019.2 1019.1 1.2
26/08:00am 19.1 18.3 14.1 73 2.9 NNW 11 15 6 8 1019.2 1019.1 1.2
26/07:30am 18.5 17.6 13.8 74 2.7 N 11 15 6 8 1019.1 1019.0 1.2
26/07:00am 17.9 16.6 13.8 77 2.3 N 13 19 7 10 1019.0 1018.9 1.2
26/06:30am 17.3 16.0 13.6 79 2.1 NNW 13 17 7 9 1019.0 1018.9 1.2
26/06:00am 16.7 16.0 13.2 80 2.0 NNW 9 15 5 8 1018.8 1018.7 1.2
26/05:30am 16.8 16.4 14.1 84 1.5 WNW 9 13 5 7 1018.8 1018.7 1.2
26/05:00am 17.3 16.0 13.8 80 2.0 NW 13 17 7 9 1018.5 1018.4 1.2
26/04:30am 17.3 16.4 13.8 80 2.0 N 11 17 6 9 1018.5 1018.4 1.2
26/04:00am 17.4 16.2 14.1 81 1.9 NE 13 19 7 10 1018.4 1018.3 1.2
26/03:30am 17.7 14.0 14.0 79 2.1 ENE 26 32 14 17 1018.3 1018.2 1.2
26/03:00am 17.6 12.9 13.3 76 2.4 ENE 30 33 16 18 1018.5 1018.4 1.2
26/02:30am 17.5 14.1 13.6 78 2.2 ENE 24 32 13 17 1018.9 1018.8 1.2
26/02:00am 17.1 14.4 13.6 80 2.0 ENE 20 24 11 13 1019.3 1019.2 1.2
26/01:30am 17.0 15.7 13.7 81 1.9 ENE 13 20 7 11 1019.7 1019.6 1.0
26/01:00am 16.9 14.8 13.6 81 1.9 ENE 17 20 9 11 1020.0 1019.9 0.6
26/12:30am 16.7 14.7 14.0 84 1.5 ENE 17 20 9 11 1020.3 1020.2 0.6
26/12:00am 16.4 14.7 13.5 83 1.6 ENE 15 19 8 10 1020.3 1020.2 0.4
 
Date/Time
EDT
Tmp

°C
App
Tmp
°C
Dew
Point
°C
Rel
Hum
%
Delta-T

°C
Wind Press
QNH
hPa
Press
MSL
hPa
Rain
since
9 am
mm
Dir
 
Spd
km/h
Gust
km/h
Spd
kts
Gust
kts
25/11:30pm 16.4 13.9 14.1 86 1.3 ENE 20 24 11 13 1020.6 1020.5 0.4
25/11:00pm 16.4 14.0 14.4 88 1.1 NE 20 24 11 13 1020.5 1020.4 0.4
25/10:30pm 16.2 14.0 14.4 89 1.0 NE 19 24 10 13 1020.5 1020.4 0.4
25/10:00pm 16.8 16.0 14.1 84 1.5 NE 11 19 6 10 1020.6 1020.5 0.0
25/09:30pm 17.8 15.5 12.9 73 2.7 E 17 22 9 12 1020.0 1019.9 0.0
25/09:00pm 18.1 15.4 13.4 74 2.7 E 20 24 11 13 1019.4 1019.3 0.0
25/08:30pm 17.9 14.6 12.8 72 2.9 E 22 26 12 14 1019.0 1018.9 0.0
25/08:00pm 18.1 15.2 13.0 72 2.9 E 20 26 11 14 1018.8 1018.7 0.0
25/07:30pm 18.4 16.3 12.4 68 3.3 E 15 20 8 11 1018.4 1018.3 0.0
25/07:00pm 18.4 15.5 12.2 67 3.4 E 19 22 10 12 1018.0 1017.9 0.0
25/06:30pm 18.6 16.0 11.9 65 3.7 E 17 22 9 12 1017.4 1017.3 0.0
25/06:00pm 18.9 16.3 11.9 64 3.9 E 17 20 9 11 1017.1 1017.0 0.0
25/05:30pm 19.1 16.3 11.2 60 4.3 ESE 17 22 9 12 1016.7 1016.6 0.0
25/05:00pm 19.4 16.2 11.4 60 4.4 ESE 19 24 10 13 1016.4 1016.3 0.0
25/04:30pm 19.4 15.3 10.1 55 5.0 ESE 22 26 12 14 1016.2 1016.1 0.0
25/04:00pm 20.0 15.1 9.9 52 5.4 ESE 26 30 14 16 1015.8 1015.7 0.0
25/03:30pm 20.4 15.7 10.8 54 5.3 SE 26 32 14 17 1015.6 1015.5 0.0
25/03:00pm 20.1 15.3 10.2 53 5.3 SE 26 32 14 17 1015.6 1015.5 0.0
25/02:30pm 19.8 14.2 10.0 53 5.3 SE 30 33 16 18 1015.3 1015.2 0.0
25/02:00pm 20.4 15.2 8.7 47 6.1 SE 26 32 14 17 1015.3 1015.2 0.0
25/01:30pm 20.7 15.3 9.6 49 5.9 SE 28 33 15 18 1015.3 1015.2 0.0
25/01:00pm 20.3 14.2 8.3 46 6.3 SE 30 35 16 19 1015.2 1015.1 0.0
25/12:30pm 20.3 14.3 8.6 47 6.1 SE 30 35 16 19 1015.3 1015.2 0.0
25/12:00pm 19.9 13.7 9.5 51 5.5 SE 32 37 17 20 1015.0 1014.9 0.0
25/11:30am 20.2 14.8 9.5 50 5.7 SE 28 35 15 19 1014.7 1014.6 0.0
25/11:00am 20.7 16.3 10.5 52 5.6 SSE 24 32 13 17 1014.5 1014.4 0.0
25/10:30am 20.6 16.4 11.2 55 5.2 SSW 24 30 13 16 1014.3 1014.2 0.0
25/10:00am 20.8 18.0 11.4 55 5.2 SW 17 22 9 12 1014.2 1014.1 0.0
25/09:30am 18.9 14.0 9.9 56 4.8 SW 26 32 14 17 1014.1 1014.0 0.0
25/09:00am 17.9 11.9 10.0 60 4.2 SSW 32 39 17 21 1013.6 1013.5 7.4
25/08:30am 17.3 11.2 10.4 64 3.7 SSW 33 44 18 24 1013.3 1013.2 7.2
25/08:00am 16.4 8.7 10.0 66 3.4 SSW 41 52 22 28 1012.4 1012.3 7.2
25/07:30am 16.1 8.1 10.4 69 3.0 SSW 43 50 23 27 1011.9 1011.8 7.2
25/07:00am 15.9 7.2 11.3 74 2.5 S 48 57 26 31 1010.8 1010.7 7.2
25/06:30am 15.8 7.9 11.4 75 2.4 SSW 44 54 24 29 1010.2 1010.1 7.2
25/06:00am 16.2 8.3 12.6 79 2.0 SSW 46 57 25 31 1009.4 1009.3 7.2
25/05:30am 16.4 8.0 13.5 83 1.6 S 50 59 27 32 1008.6 1008.5 7.2
25/05:00am 16.2 8.1 13.1 82 1.7 S 48 57 26 31 1008.1 1008.0 7.2
25/04:30am 16.6 8.8 14.2 86 1.4 S 48 57 26 31 1008.0 1007.9 7.2
25/04:00am 17.1 9.5 14.6 85 1.4 S 48 61 26 33 1007.4 1007.3 7.2
25/03:30am 17.7 10.7 15.3 86 1.4 S 46 57 25 31 1006.8 1006.7 7.2
25/03:00am 17.8 11.4 15.8 88 1.2 S 44 56 24 30 1006.7 1006.6 7.2
25/02:52am 18.1 12.2 16.6 91 0.9 S 43 56 23 30 1006.6 1006.5 7.2
25/02:41am 19.5 15.8 18.3 93 0.7 SSW 35 54 19 29 1006.3 1006.2 7.2
25/02:36am 19.5 16.2 18.0 91 0.9 SW 32 39 17 21 1006.3 1006.2 7.2
25/02:30am 19.6 19.6 18.1 91 0.9 W 15 19 8 10 1006.2 1006.1 7.2
25/02:00am 20.1 19.3 18.4 90 1.1 NNW 20 24 11 13 1005.3 1005.2 7.2
25/01:30am 20.5 17.8 16.7 79 2.3 N 26 28 14 15 1005.5 1005.4 7.2
25/01:00am 20.6 19.4 16.2 76 2.7 N 17 22 9 12 1005.8 1005.7 7.2
25/12:30am 20.5 19.3 17.1 81 2.1 N 19 22 10 12 1006.2 1006.1 7.2
25/12:00am 20.0 19.7 19.5 97 0.3 N 20 24 11 13 1007.7 1007.6 7.2
 
Date/Time
EDT
Tmp

°C
App
Tmp
°C
Dew
Point
°C
Rel
Hum
%
Delta-T

°C
Wind Press
QNH
hPa
Press
MSL
hPa
Rain
since
9 am
mm
Dir
 
Spd
km/h
Gust
km/h
Spd
kts
Gust
kts
24/11:30pm 19.6 20.6 19.4 99 0.1 NNW 13 17 7 9 1008.6 1008.5 7.0
24/11:00pm 19.7 19.3 19.4 98 0.2 WNW 20 26 11 14 1009.3 1009.2 6.8
24/10:30pm 20.1 20.0 19.9 99 0.1 N 20 24 11 13 1008.1 1008.0 4.4
24/10:00pm 20.1 21.7 19.9 99 0.1 NE 11 13 6 7 1007.9 1007.8 4.4
24/09:30pm 20.0 20.4 19.8 99 0.1 N 17 20 9 11 1007.9 1007.8 4.4
24/09:00pm 19.9 20.2 19.6 98 0.2 N 17 19 9 10 1007.6 1007.5 4.4
24/08:30pm 19.9 22.1 19.6 98 0.2 NW 7 9 4 5 1008.0 1007.9 4.4
24/08:00pm 19.9 21.2 19.4 97 0.3 NW 11 13 6 7 1007.5 1007.4 4.4
24/07:30pm 20.2 21.7 19.7 97 0.3 N 11 13 6 7 1007.0 1006.9 4.4
24/07:00pm 20.4 21.9 19.7 96 0.4 N 11 15 6 8 1007.4 1007.3 4.4
24/06:30pm 20.2 21.2 19.5 96 0.4 E 13 19 7 10 1007.1 1007.0 4.4
24/06:00pm 20.2 20.0 19.7 97 0.3 E 20 28 11 15 1006.9 1006.8 4.4
24/05:30pm 20.0 21.5 19.7 98 0.2 E 11 15 6 8 1007.1 1007.0 4.4
24/05:00pm 19.9 21.7 19.6 98 0.2 ESE 9 11 5 6 1007.8 1007.7 4.2
24/04:30pm 19.8 20.3 19.3 97 0.3 SE 15 17 8 9 1008.2 1008.1 4.2
24/04:00pm 20.1 20.6 19.3 95 0.5 SSW 15 19 8 10 1009.1 1009.0 3.4
24/03:30pm 20.6 22.8 19.6 94 0.6 WSW 7 11 4 6 - 1003.2 2.2
24/03:00pm 20.4 22.4 19.2 93 0.8 NW 7 11 4 6 - 1007.0 1.8
24/02:30pm 20.6 20.8 19.4 93 0.8 N 17 19 9 10 1009.4 1009.3 1.8
24/02:00pm 20.9 20.8 19.6 92 0.8 N 19 22 10 12 1009.6 1009.5 1.8

Latest Capital City Observations: Canberra | Sydney | Melbourne | Brisbane | Adelaide | Perth | Hobart | Darwin

Other Formats:

Comma delimited format used in spreadsheet applications
http://www.bom.gov.au/fwo/IDN60903/IDN60903.94939.axf

JavaScript Object Notation format (JSON) in row-major order
http://www.bom.gov.au/fwo/IDN60903/IDN60903.94939.json